首页
METAR-TAF:

METAR-TAF

机场 :

Brookings, 南达科他州, 美国

纬度: 44-18N, 经度: 096-49W, 海拔: 502米

当前天气观测

该预报发布于29分钟前的21:04 UTC
风速13节,风向南转南东
温度 22°C
湿度 88%
气压 1008 hPa
能見度: 16.1公里
阴天层高于1600英尺

METAR: KBKX 152104Z AUTO 16013KT 10SM OVC016 22/20 A2976 RMK AO2 RAE04 P0000

时间: 16:33 (21:33 UTC)


TAF: 丢失

超过4000个机场的气象观测和天气预报(METAR&TAF报告)。

可查询的气象台以黄色和红色小点在地图上表示。

将鼠标移到小点上方,可查看气象台名称。

然后点击查看天气观测和预报。

如需切换地图:点击带黑十字的绿色按钮放大地图;点击带横线的绿色按钮缩小地图;或者点击绿色箭头查看邻近地区的地图。


METAR-TAF: